createdAt,value
2019-04-22T00:01:40.138Z,9.20
2019-04-22T00:04:15.525Z,8.90
2019-04-22T00:07:05.243Z,9.60
2019-04-22T00:09:38.875Z,9.70
2019-04-22T00:12:16.506Z,10.35
2019-04-22T00:14:37.298Z,9.50
2019-04-22T00:17:18.527Z,9.68
2019-04-22T00:19:45.726Z,9.65
2019-04-22T00:22:17.929Z,9.53
2019-04-22T00:24:38.593Z,9.00
2019-04-22T00:27:14.390Z,9.18
2019-04-22T00:32:30.510Z,9.43
2019-04-22T00:35:03.915Z,9.38
2019-04-22T00:37:41.074Z,8.70
2019-04-22T00:40:07.241Z,8.55
2019-04-22T00:42:35.452Z,8.85
2019-04-22T00:45:07.946Z,8.55
2019-04-22T00:47:38.013Z,8.70
2019-04-22T00:57:42.610Z,8.20
2019-04-22T01:00:11.944Z,8.70
2019-04-22T01:02:41.636Z,8.75
2019-04-22T01:05:15.104Z,8.18
2019-04-22T01:07:35.603Z,8.73
2019-04-22T01:10:11.676Z,8.78
2019-04-22T01:12:39.607Z,8.73
2019-04-22T01:15:14.837Z,8.70
2019-04-22T01:17:44.765Z,9.28
2019-04-22T01:20:43.578Z,8.80
2019-04-22T01:22:38.361Z,8.80
2019-04-22T01:25:14.692Z,9.10
2019-04-22T01:27:39.242Z,8.83
2019-04-22T01:30:08.474Z,9.23
2019-04-22T01:32:34.053Z,9.33
2019-04-22T01:35:08.450Z,9.55
2019-04-22T01:37:46.058Z,9.03
2019-04-22T01:40:28.136Z,9.13
2019-04-22T01:42:57.576Z,9.53
2019-04-22T01:45:26.469Z,9.28
2019-04-22T01:48:10.471Z,9.18
2019-04-22T01:50:29.307Z,8.73
2019-04-22T01:53:00.939Z,10.00
2019-04-22T01:57:53.676Z,9.55
2019-04-22T02:00:15.246Z,9.50
2019-04-22T02:02:59.150Z,9.05
2019-04-22T02:05:26.792Z,9.30
2019-04-22T02:07:56.125Z,9.25
2019-04-22T02:10:34.649Z,9.60
2019-04-22T02:13:02.017Z,9.55
2019-04-22T02:15:27.844Z,10.15
2019-04-22T02:18:01.304Z,10.13
2019-04-22T02:20:26.756Z,10.32
2019-04-22T02:26:25.325Z,11.12
2019-04-22T02:36:22.861Z,10.82
2019-04-22T02:51:22.699Z,10.85
2019-04-22T02:56:27.603Z,11.53
2019-04-22T02:59:12.250Z,11.12
2019-04-22T03:04:06.798Z,11.10
2019-04-22T03:07:16.472Z,11.83
2019-04-22T03:11:25.386Z,11.48
2019-04-22T03:16:33.177Z,10.78
2019-04-22T03:19:02.493Z,10.72
2019-04-22T03:21:24.173Z,10.82
2019-04-22T03:26:35.178Z,11.53
2019-04-22T03:28:54.861Z,11.03
2019-04-22T03:35:09.674Z,11.35
2019-04-22T03:44:38.597Z,10.23
2019-04-22T03:47:11.556Z,11.20
2019-04-22T03:59:33.458Z,11.10
2019-04-22T04:07:11.540Z,11.20
2019-04-22T04:09:33.861Z,11.08
2019-04-22T04:17:02.333Z,11.95
2019-04-22T04:19:45.942Z,11.95
2019-04-22T04:22:15.939Z,12.05
2019-04-22T04:24:48.530Z,12.33
2019-04-22T04:27:34.640Z,11.95
2019-04-22T04:32:25.100Z,11.30
2019-04-22T04:34:54.542Z,12.03
2019-04-22T04:37:25.191Z,12.37
2019-04-22T04:39:43.384Z,11.03
2019-04-22T04:42:16.124Z,11.08
2019-04-22T04:44:59.203Z,10.55
2019-04-22T04:47:11.481Z,10.95
2019-04-22T04:49:48.435Z,10.95
2019-04-22T04:52:19.707Z,10.53
2019-04-22T04:54:44.502Z,10.25
2019-04-22T04:57:07.521Z,10.38
2019-04-22T05:00:03.800Z,10.85
2019-04-22T05:02:17.540Z,10.28
2019-04-22T05:05:06.816Z,9.90
2019-04-22T05:07:36.090Z,10.00
2019-04-22T05:09:59.856Z,9.03
2019-04-22T05:12:45.359Z,10.25
2019-04-22T05:15:09.074Z,9.68
2019-04-22T05:17:41.214Z,9.78
2019-04-22T05:20:05.263Z,9.83
2019-04-22T05:22:33.647Z,10.30
2019-04-22T05:25:09.144Z,9.68
2019-04-22T05:27:34.340Z,9.68
2019-04-22T05:30:19.850Z,9.55
2019-04-22T05:40:17.709Z,8.85
2019-04-22T05:42:35.624Z,9.50
2019-04-22T05:45:10.239Z,9.15
2019-04-22T05:47:42.259Z,8.78
2019-04-22T05:50:07.822Z,8.33
2019-04-22T05:52:40.459Z,8.65
2019-04-22T05:55:16.111Z,8.05
2019-04-22T05:57:42.659Z,7.97
2019-04-22T06:00:18.260Z,8.53
2019-04-22T06:05:17.504Z,8.13
2019-04-22T06:07:47.220Z,8.50
2019-04-22T06:12:43.308Z,7.35
2019-04-22T06:15:22.283Z,8.08
2019-04-22T06:17:59.022Z,7.53
2019-04-22T06:20:23.775Z,7.55
2019-04-22T06:25:27.664Z,8.03
2019-04-22T06:27:54.099Z,7.33
2019-04-22T06:30:44.029Z,7.00
2019-04-22T06:33:01.151Z,6.90
2019-04-22T06:38:15.971Z,6.50
2019-04-22T06:40:28.940Z,6.05
2019-04-22T06:45:28.821Z,6.33
2019-04-22T06:48:09.758Z,6.00
2019-04-22T06:50:38.481Z,6.03
2019-04-22T06:53:02.634Z,5.70
2019-04-22T06:55:38.985Z,6.10
2019-04-22T06:58:04.952Z,6.15
2019-04-22T07:00:36.948Z,5.65
2019-04-22T07:03:34.638Z,5.83
2019-04-22T07:05:44.574Z,6.03
2019-04-22T07:08:28.388Z,9.80
2019-04-22T07:10:51.858Z,6.62
2019-04-22T07:13:11.522Z,6.05
2019-04-22T07:18:19.813Z,6.25
2019-04-22T07:20:44.304Z,6.22
2019-04-22T07:23:24.741Z,6.30
2019-04-22T07:25:49.280Z,6.03
2019-04-22T07:28:15.801Z,6.62
2019-04-22T07:30:44.619Z,6.20
2019-04-22T07:33:30.506Z,6.08
2019-04-22T07:38:23.805Z,6.22
2019-04-22T07:40:59.505Z,5.37
2019-04-22T07:45:51.850Z,5.45
2019-04-22T07:51:07.596Z,5.50
2019-04-22T07:53:21.615Z,5.45
2019-04-22T07:55:53.272Z,5.05
2019-04-22T07:58:27.418Z,5.62
2019-04-22T08:00:57.757Z,5.12
2019-04-22T08:03:31.955Z,5.42
2019-04-22T08:06:08.669Z,5.28
2019-04-22T08:08:25.794Z,5.15
2019-04-22T08:10:57.794Z,5.15
2019-04-22T08:13:24.834Z,5.10
2019-04-22T08:16:01.199Z,4.70
2019-04-22T08:18:29.034Z,4.25
2019-04-22T08:20:58.394Z,5.42
2019-04-22T08:23:31.669Z,4.92
2019-04-22T08:25:55.706Z,4.95
2019-04-22T08:28:34.468Z,5.45
2019-04-22T08:31:02.135Z,5.33
2019-04-22T08:33:29.281Z,5.30
2019-04-22T08:36:10.489Z,5.25
2019-04-22T08:41:23.361Z,5.40
2019-04-22T08:44:18.717Z,4.90
2019-04-22T08:46:49.032Z,4.95
2019-04-22T08:49:16.154Z,5.03
2019-04-22T08:51:40.211Z,4.97
2019-04-22T08:54:05.052Z,5.00
2019-04-22T08:59:10.445Z,5.00
2019-04-22T09:01:34.348Z,5.10
2019-04-22T09:06:56.640Z,5.22
2019-04-22T09:09:06.542Z,4.90
2019-04-22T09:11:41.961Z,5.40
2019-04-22T09:14:11.218Z,5.40
2019-04-22T09:16:46.334Z,5.28
2019-04-22T09:21:43.304Z,5.22
2019-04-22T09:24:10.556Z,4.87
2019-04-22T09:26:43.596Z,4.78
2019-04-22T09:29:14.637Z,4.53
2019-04-22T09:32:01.685Z,4.62
2019-04-22T09:34:06.795Z,4.33
2019-04-22T09:36:42.062Z,4.28
2019-04-22T09:39:19.299Z,4.35
2019-04-22T09:41:48.249Z,4.62
2019-04-22T09:44:10.700Z,4.28
2019-04-22T09:46:43.912Z,4.55
2019-04-22T09:51:46.184Z,5.00
2019-04-22T09:54:21.740Z,5.30
2019-04-22T09:56:43.436Z,4.60
2019-04-22T09:59:13.976Z,4.72
2019-04-22T10:01:47.522Z,5.00
2019-04-22T10:04:10.086Z,5.10
2019-04-22T10:06:40.605Z,5.12
2019-04-22T10:09:37.336Z,4.70
2019-04-22T10:11:47.661Z,4.60
2019-04-22T10:14:18.933Z,4.80
2019-04-22T10:17:06.805Z,4.78
2019-04-22T10:19:18.340Z,4.72
2019-04-22T10:22:12.231Z,4.22
2019-04-22T10:24:17.029Z,4.20
2019-04-22T10:29:20.169Z,5.00
2019-04-22T10:31:49.411Z,4.87
2019-04-22T10:34:09.286Z,5.92
2019-04-22T10:36:25.649Z,5.08
2019-04-22T10:38:54.949Z,5.60
2019-04-22T10:41:23.510Z,5.65
2019-04-22T10:43:52.927Z,5.50
2019-04-22T10:46:22.181Z,5.20
2019-04-22T10:48:52.631Z,5.20
2019-04-22T10:51:22.335Z,4.92
2019-04-22T10:53:51.282Z,5.90
2019-04-22T10:56:21.026Z,5.83
2019-04-22T10:58:50.723Z,5.33
2019-04-22T11:01:19.395Z,5.53
2019-04-22T11:03:49.071Z,5.67
2019-04-22T11:06:19.153Z,5.50
2019-04-22T11:08:52.859Z,4.42
2019-04-22T11:11:30.105Z,4.62
2019-04-22T11:13:49.605Z,3.70
2019-04-22T11:16:19.360Z,4.20
2019-04-22T11:18:47.966Z,3.85
2019-04-22T11:21:17.999Z,4.30
2019-04-22T11:23:46.938Z,4.20
2019-04-22T11:26:15.640Z,4.72
2019-04-22T11:28:45.433Z,4.10
2019-04-22T11:31:14.739Z,3.98
2019-04-22T11:33:44.866Z,4.90
2019-04-22T11:36:15.622Z,3.75
2019-04-22T11:38:49.230Z,3.70
2019-04-22T11:41:14.830Z,4.25
2019-04-22T11:43:45.095Z,4.55
2019-04-22T11:46:15.525Z,3.75
2019-04-22T11:48:45.504Z,4.15
2019-04-22T11:51:25.981Z,3.80
2019-04-22T11:53:54.863Z,3.95
2019-04-22T11:56:23.395Z,3.85
2019-04-22T11:58:52.920Z,3.77
2019-04-22T12:01:21.976Z,4.28
2019-04-22T12:03:51.786Z,3.55
2019-04-22T12:06:22.162Z,3.92
2019-04-22T12:08:51.935Z,3.60
2019-04-22T12:11:20.780Z,3.80
2019-04-22T12:13:49.251Z,4.15
2019-04-22T12:16:19.049Z,4.05
2019-04-22T12:18:49.216Z,3.67
2019-04-22T12:21:19.266Z,3.92
2019-04-22T12:23:48.696Z,3.45
2019-04-22T12:26:19.493Z,3.40
2019-04-22T12:28:49.016Z,3.52
2019-04-22T12:31:17.932Z,3.50
2019-04-22T12:33:47.643Z,3.42
2019-04-22T12:36:16.397Z,4.00
2019-04-22T12:38:45.285Z,3.95
2019-04-22T12:41:14.507Z,3.33
2019-04-22T12:43:45.058Z,3.30
2019-04-22T12:46:16.231Z,3.10
2019-04-22T12:48:46.877Z,3.35
2019-04-22T12:51:15.481Z,3.00
2019-04-22T12:53:44.574Z,2.92
2019-04-22T12:56:15.413Z,3.92
2019-04-22T12:58:45.804Z,4.50
2019-04-22T13:01:15.165Z,3.35
2019-04-22T13:03:44.656Z,4.05
2019-04-22T13:06:14.246Z,4.28
2019-04-22T13:08:43.565Z,3.80
2019-04-22T13:11:17.541Z,4.10
2019-04-22T13:13:42.926Z,3.55
2019-04-22T13:16:13.270Z,4.22
2019-04-22T13:18:49.353Z,3.30
2019-04-22T13:21:13.086Z,3.40
2019-04-22T13:23:41.603Z,3.37
2019-04-22T13:26:10.719Z,2.77
2019-04-22T13:28:39.259Z,3.25
2019-04-22T13:31:07.981Z,2.70
2019-04-22T13:33:36.965Z,2.40
2019-04-22T13:36:05.974Z,3.17
2019-04-22T13:38:35.368Z,2.90
2019-04-22T13:41:32.917Z,2.60
2019-04-22T13:43:55.785Z,2.83
2019-04-22T13:46:24.306Z,2.70
2019-04-22T13:49:25.580Z,3.00
2019-04-22T13:52:15.431Z,2.62
2019-04-22T13:56:43.841Z,2.62
2019-04-22T13:59:04.659Z,3.25
2019-04-22T14:01:25.800Z,2.83
2019-04-22T14:03:58.899Z,3.02
2019-04-22T14:06:28.931Z,3.12
2019-04-22T14:08:59.032Z,2.40
2019-04-22T14:11:37.619Z,2.70
2019-04-22T14:13:58.796Z,2.65
2019-04-22T14:16:27.294Z,2.80
2019-04-22T14:18:56.104Z,2.60
2019-04-22T14:21:24.987Z,2.30
2019-04-22T14:23:53.757Z,2.67
2019-04-22T14:26:23.041Z,2.62
2019-04-22T14:28:51.714Z,2.45
2019-04-22T14:31:20.419Z,2.70
2019-04-22T14:33:53.560Z,2.45
2019-04-22T14:36:19.451Z,3.10
2019-04-22T14:38:48.352Z,2.50
2019-04-22T14:41:35.771Z,2.72
2019-04-22T14:44:49.588Z,2.80
2019-04-22T14:46:53.590Z,2.65
2019-04-22T14:49:10.638Z,2.75
2019-04-22T14:51:42.800Z,2.45
2019-04-22T14:54:05.336Z,2.52
2019-04-22T14:56:20.171Z,2.60
2019-04-22T14:58:49.129Z,2.72
2019-04-22T15:01:19.080Z,2.92
2019-04-22T15:03:48.387Z,2.72
2019-04-22T15:06:18.168Z,2.62
2019-04-22T15:08:47.069Z,2.20
2019-04-22T15:11:17.105Z,2.52
2019-04-22T15:13:47.166Z,2.17
2019-04-22T15:16:23.802Z,2.47
2019-04-22T15:19:04.091Z,2.27
2019-04-22T15:21:32.733Z,2.30
2019-04-22T15:24:04.508Z,2.00
2019-04-22T15:26:34.387Z,2.05
2019-04-22T15:29:03.232Z,2.22
2019-04-22T15:31:31.784Z,2.22
2019-04-22T15:34:02.669Z,2.40
2019-04-22T15:36:32.411Z,1.77
2019-04-22T15:39:02.855Z,2.00
2019-04-22T15:41:32.668Z,1.70
2019-04-22T15:44:01.848Z,2.42
2019-04-22T15:46:31.929Z,2.30
2019-04-22T15:49:01.990Z,1.90
2019-04-22T15:51:31.643Z,5.25
2019-04-22T15:54:01.368Z,2.40
2019-04-22T15:56:30.709Z,2.50
2019-04-22T15:58:59.747Z,2.35
2019-04-22T16:01:33.423Z,2.37
2019-04-22T16:03:58.921Z,2.15
2019-04-22T16:06:28.066Z,2.45
2019-04-22T16:08:59.665Z,2.20
2019-04-22T16:11:27.686Z,2.17
2019-04-22T16:13:57.184Z,3.00
2019-04-22T16:16:25.897Z,2.15
2019-04-22T16:18:54.649Z,2.30
2019-04-22T16:21:33.832Z,2.20
2019-04-22T16:24:02.611Z,2.30
2019-04-22T16:26:40.165Z,2.15
2019-04-22T16:29:11.674Z,2.60
2019-04-22T16:31:40.255Z,2.72
2019-04-22T16:34:09.495Z,2.12
2019-04-22T16:36:38.800Z,2.50
2019-04-22T16:39:11.008Z,2.62
2019-04-22T16:41:39.681Z,2.20
2019-04-22T16:44:09.056Z,2.77
2019-04-22T16:46:37.680Z,2.75
2019-04-22T16:49:07.574Z,2.60
2019-04-22T16:51:36.241Z,2.70
2019-04-22T16:54:06.470Z,2.50
2019-04-22T16:56:37.098Z,2.67
2019-04-22T16:59:06.672Z,2.92
2019-04-22T17:04:20.797Z,3.00
2019-04-22T17:06:50.868Z,2.90
2019-04-22T17:09:19.817Z,2.50
2019-04-22T17:11:49.886Z,2.70
2019-04-22T17:14:27.245Z,2.70
2019-04-22T17:16:50.616Z,2.80
2019-04-22T17:19:19.540Z,2.83
2019-04-22T17:21:49.839Z,2.85
2019-04-22T17:24:19.496Z,2.80
2019-04-22T17:26:48.500Z,2.77
2019-04-22T17:29:18.576Z,3.15
2019-04-22T17:31:50.961Z,3.33
2019-04-22T17:34:17.856Z,3.12
2019-04-22T17:36:46.421Z,2.98
2019-04-22T17:39:47.789Z,3.00
2019-04-22T17:42:25.395Z,2.98
2019-04-22T17:45:03.152Z,3.00
2019-04-22T17:47:28.766Z,2.90
2019-04-22T17:50:10.058Z,3.00
2019-04-22T17:52:38.914Z,3.30
2019-04-22T17:55:07.573Z,3.00
2019-04-22T17:57:33.017Z,2.92
2019-04-22T18:00:06.186Z,2.90
2019-04-22T18:02:35.693Z,3.30
2019-04-22T18:04:53.895Z,3.22
2019-04-22T18:07:38.604Z,2.92
2019-04-22T18:12:43.828Z,2.80
2019-04-22T18:15:10.060Z,3.17
2019-04-22T18:17:41.254Z,3.02
2019-04-22T18:20:04.334Z,3.20
2019-04-22T18:22:33.071Z,2.90
2019-04-22T18:25:03.506Z,3.30
2019-04-22T18:27:47.243Z,2.72
2019-04-22T18:30:03.919Z,3.08
2019-04-22T18:32:38.186Z,2.90
2019-04-22T18:35:11.812Z,3.40
2019-04-22T18:37:46.978Z,2.90
2019-04-22T18:40:15.099Z,3.50
2019-04-22T18:42:45.785Z,2.83
2019-04-22T18:45:29.687Z,3.25
2019-04-22T18:47:38.960Z,3.20
2019-04-22T18:50:10.585Z,3.75
2019-04-22T18:52:49.282Z,3.50
2019-04-22T18:55:22.108Z,3.77
2019-04-22T18:57:53.443Z,3.30
2019-04-22T19:00:23.102Z,3.47
2019-04-22T19:02:58.963Z,3.00
2019-04-22T19:05:43.772Z,3.50
2019-04-22T19:15:59.453Z,3.62
2019-04-22T19:18:24.456Z,3.77
2019-04-22T19:20:51.839Z,3.75
2019-04-22T19:23:24.214Z,3.83
2019-04-22T19:25:42.350Z,3.80
2019-04-22T19:28:27.660Z,3.77
2019-04-22T19:30:56.776Z,3.75
2019-04-22T19:33:23.921Z,3.75
2019-04-22T19:35:43.543Z,3.87
2019-04-22T19:38:13.269Z,3.75
2019-04-22T19:41:00.626Z,3.60
2019-04-22T19:43:22.930Z,3.67
2019-04-22T19:45:48.350Z,3.65
2019-04-22T19:48:32.945Z,4.10
2019-04-22T19:51:15.813Z,4.12
2019-04-22T19:53:47.079Z,4.15
2019-04-22T19:56:11.490Z,4.50
2019-04-22T19:58:37.463Z,4.20
2019-04-22T20:01:31.486Z,4.70
2019-04-22T20:04:19.794Z,5.50
2019-04-22T20:06:45.574Z,5.72
2019-04-22T20:09:20.623Z,5.40
2019-04-22T20:11:43.685Z,5.95
2019-04-22T20:14:17.057Z,5.40
2019-04-22T20:16:37.510Z,6.28
2019-04-22T20:19:19.238Z,6.35
2019-04-22T20:21:50.144Z,7.42
2019-04-22T20:24:06.684Z,7.00
2019-04-22T20:26:49.973Z,6.92
2019-04-22T20:29:24.303Z,6.70
2019-04-22T20:31:49.715Z,6.58
2019-04-22T20:34:22.374Z,6.90
2019-04-22T20:39:20.391Z,6.40
2019-04-22T20:41:54.974Z,5.90
2019-04-22T20:44:30.709Z,6.28
2019-04-22T20:46:48.890Z,6.87
2019-04-22T20:49:30.580Z,6.15
2019-04-22T20:54:22.982Z,6.30
2019-04-22T20:56:53.339Z,7.83
2019-04-22T20:59:23.975Z,7.70
2019-04-22T21:01:55.323Z,7.55
2019-04-22T21:04:19.792Z,7.12
2019-04-22T21:07:01.148Z,7.70
2019-04-22T21:09:27.316Z,7.90
2019-04-22T21:11:56.540Z,7.75
2019-04-22T21:14:27.472Z,8.43
2019-04-22T21:17:00.758Z,8.08
2019-04-22T21:19:41.681Z,8.00
2019-04-22T21:22:03.704Z,8.65
2019-04-22T21:24:32.759Z,8.45
2019-04-22T21:27:08.186Z,9.03
2019-04-22T21:29:28.124Z,9.10
2019-04-22T21:32:01.296Z,8.95
2019-04-22T21:34:39.083Z,9.53
2019-04-22T21:37:07.635Z,9.20
2019-04-22T21:39:30.788Z,9.45
2019-04-22T21:41:58.831Z,9.65
2019-04-22T21:44:32.702Z,10.00
2019-04-22T21:47:12.177Z,10.13
2019-04-22T21:49:35.899Z,10.03
2019-04-22T21:52:07.886Z,10.55
2019-04-22T21:54:42.957Z,10.72
2019-04-22T21:57:19.011Z,9.85
2019-04-22T21:59:35.782Z,10.75
2019-04-22T22:04:49.059Z,10.30
2019-04-22T22:07:07.437Z,10.18
2019-04-22T22:09:47.518Z,9.53
2019-04-22T22:12:18.208Z,10.50
2019-04-22T22:15:00.358Z,9.78
2019-04-22T22:17:22.579Z,10.35
2019-04-22T22:19:54.509Z,9.23
2019-04-22T22:22:42.112Z,9.75
2019-04-22T22:24:58.347Z,9.93
2019-04-22T22:27:28.286Z,9.90
2019-04-22T22:30:06.847Z,10.38
2019-04-22T22:32:32.444Z,10.03
2019-04-22T22:35:01.745Z,9.60
2019-04-22T22:37:22.112Z,10.63
2019-04-22T22:39:48.437Z,10.35
2019-04-22T22:42:17.774Z,9.90
2019-04-22T22:44:44.677Z,10.05
2019-04-22T22:47:30.055Z,10.10
2019-04-22T22:50:05.899Z,10.70
2019-04-22T22:52:51.777Z,9.95
2019-04-22T22:55:06.916Z,10.18
2019-04-22T22:57:39.939Z,10.13
2019-04-22T23:00:02.133Z,10.75
2019-04-22T23:02:45.155Z,9.53
2019-04-22T23:05:04.202Z,9.53
2019-04-22T23:07:37.531Z,10.55
2019-04-22T23:10:05.037Z,10.70
2019-04-22T23:12:46.537Z,10.75
2019-04-22T23:15:07.879Z,9.80
2019-04-22T23:17:23.568Z,11.05
2019-04-22T23:19:50.340Z,9.73
2019-04-22T23:22:23.480Z,10.10
2019-04-22T23:25:07.744Z,10.72
2019-04-22T23:27:38.784Z,11.20
2019-04-22T23:30:06.553Z,10.80
2019-04-22T23:32:35.497Z,10.68
2019-04-22T23:35:19.111Z,10.32
2019-04-22T23:37:47.623Z,11.03
2019-04-22T23:40:22.067Z,10.55
2019-04-22T23:42:56.399Z,10.05
2019-04-22T23:45:21.444Z,11.63
2019-04-22T23:47:41.148Z,10.75
2019-04-22T23:50:24.437Z,10.58
2019-04-22T23:52:53.347Z,10.63
2019-04-22T23:55:26.043Z,10.55
2019-04-22T23:57:56.780Z,10.15
